Hlavní strana
METAR-TAF:

METAR-TAF

Letiště :

Hemavan, Švédsko

zeměpisná šířka: 65-48-22N, zeměpisná délka: 015-04-58E, výška: 458 m

Aktuální stav počasí

Zpráva byla vytvořena před 7 minutami, v 21:20 UTC
Jižní vítr 13 kt
Teplota -2°C
Vlhkost vzduchu 80%
Tlak 1000 hPa
Viditelnost 10 km a více
sněhová zrna

METAR: ESUT 122120Z AUTO 19013KT 9999 SG BKN022/// OVC030/// M02/M05 Q1000

Čas: 22:27 (21:27 UTC)


TAF: chybějící

Stav a předpovědi počasí z více než 4 000 letišť (zprávy METAR a TAF).

Červené a žluté tečky na mapě představují dostupné meteorologické stanice.

Když kurzor umístíte na tečku, zobrazí se název stanice.

Pak kliknutím zobrazíte stav a předpověď počasí.

Chcete-li změnit mapu, kliknutím na zelené tlačítko se znaménkem +mapu přiblížíte, kliknutím na zelené tlačítko se znaménkem – mapu oddálíte a kliknutím na zelené šipky přejdete na sousední mapy.


METAR-TAF: